Lebanon Municipal Airport

Airport
ICAO code: 
KLEB
Summary
ICAO Region: 
NAM
Territory: 
Location: 
Lebanon, New Hampshire,
Coordinates: 
Aerial View: 
43° 37' 42.684" N, 72° 18' 23.399" W
Airport WX: 
Cumulonimbus
Metar
Observation
KLEB 021453Z 00000KT 5SM -RA BR OVC005 01/M01 A2973 RMK AO2 RAB30 CIG 003V008 SLP075 P0000 60001 I1001 I3001 T00111006 58035 $
Station
Lebanon, Lebanon Municipal Airport
Date/Time
2021-12-02 14:53:00
Wind direction
Wind speed
00 kts
Lowest cloud amount
overcast
Temperature
1.1°C
Dew point
-0.6°C
Humidity
88%
Weather condition
light

Description

Lebanon Municipal Airport is a public use airport located 6 km west of the central business district of Lebanon, a city in Grafton County, New Hampshire.

Climatology

Humid continental climate (Köppen climate classification Dfa) - characterized by four seasons: cold, windy, snowy winters, mild springs, hot, humid summers, and crisp and relatively short autumns. Precipitation reaches its lowest in January and February and peaks in summer and latter half of spring.

Runways

Designator Length Width Surface Rops
18/36 1585 30 ASP Yes/Yes
7/25 1675 30 ASP Yes/Yes
Airport map: 
Aerial View: 

SKYbrary Partners:

Safety knowledge contributed by: